sensor_id;sensor_type;location;lat;lon;timestamp;temperature;humidity
23495;DHT22;26107;50.832;2.950;2022-08-18T00:03:53;20.00;99.90
23495;DHT22;26107;50.832;2.950;2022-08-18T00:18:54;19.80;99.90
23495;DHT22;26107;50.832;2.950;2022-08-18T00:33:54;19.30;99.90
23495;DHT22;26107;50.832;2.950;2022-08-18T00:48:55;19.70;99.90
23495;DHT22;26107;50.832;2.950;2022-08-18T01:04:02;19.70;99.90
23495;DHT22;26107;50.832;2.950;2022-08-18T01:19:04;19.40;99.90
23495;DHT22;26107;50.832;2.950;2022-08-18T01:34:25;19.40;99.90
23495;DHT22;26107;50.832;2.950;2022-08-18T01:49:28;18.60;99.90
23495;DHT22;26107;50.832;2.950;2022-08-18T02:04:29;19.10;99.90
23495;DHT22;26107;50.832;2.950;2022-08-18T02:19:33;19.10;99.90
23495;DHT22;26107;50.832;2.950;2022-08-18T02:34:34;19.00;99.90
23495;DHT22;26107;50.832;2.950;2022-08-18T02:49:34;18.30;99.90
23495;DHT22;26107;50.832;2.950;2022-08-18T03:04:38;18.70;99.90
23495;DHT22;26107;50.832;2.950;2022-08-18T03:19:39;18.80;99.90
23495;DHT22;26107;50.832;2.950;2022-08-18T03:34:39;18.50;99.90
23495;DHT22;26107;50.832;2.950;2022-08-18T03:49:41;18.00;99.90
23495;DHT22;26107;50.832;2.950;2022-08-18T04:04:42;18.40;99.90
23495;DHT22;26107;50.832;2.950;2022-08-18T04:19:42;18.30;99.90
23495;DHT22;26107;50.832;2.950;2022-08-18T04:34:43;17.40;99.90
23495;DHT22;26107;50.832;2.950;2022-08-18T04:49:44;17.20;99.90
23495;DHT22;26107;50.832;2.950;2022-08-18T05:04:45;16.60;99.90
23495;DHT22;26107;50.832;2.950;2022-08-18T05:19:46;16.80;99.90
23495;DHT22;26107;50.832;2.950;2022-08-18T05:34:47;17.50;99.90
23495;DHT22;26107;50.832;2.950;2022-08-18T05:49:49;16.60;99.90
23495;DHT22;26107;50.832;2.950;2022-08-18T06:04:50;17.30;99.90
23495;DHT22;26107;50.832;2.950;2022-08-18T06:50:22;17.10;99.90
23495;DHT22;26107;50.832;2.950;2022-08-18T07:05:31;17.30;99.90
23495;DHT22;26107;50.832;2.950;2022-08-18T07:20:46;17.80;99.90
23495;DHT22;26107;50.832;2.950;2022-08-18T07:35:48;18.80;99.90
23495;DHT22;26107;50.832;2.950;2022-08-18T08:06:03;19.50;99.90
23495;DHT22;26107;50.832;2.950;2022-08-18T08:21:07;20.20;99.90
23495;DHT22;26107;50.832;2.950;2022-08-18T08:36:14;20.40;99.90
23495;DHT22;26107;50.832;2.950;2022-08-18T08:51:27;21.30;99.90
23495;DHT22;26107;50.832;2.950;2022-08-18T10:37:53;22.60;99.90
23495;DHT22;26107;50.832;2.950;2022-08-18T11:07:59;23.60;99.90
23495;DHT22;26107;50.832;2.950;2022-08-18T11:23:02;24.00;99.90
23495;DHT22;26107;50.832;2.950;2022-08-18T11:38:03;24.60;99.90
23495;DHT22;26107;50.832;2.950;2022-08-18T11:53:12;24.10;99.90
23495;DHT22;26107;50.832;2.950;2022-08-18T12:08:17;23.50;99.90
23495;DHT22;26107;50.832;2.950;2022-08-18T12:23:18;25.20;99.90
23495;DHT22;26107;50.832;2.950;2022-08-18T12:38:19;24.40;99.90
23495;DHT22;26107;50.832;2.950;2022-08-18T12:53:19;24.90;99.90
23495;DHT22;26107;50.832;2.950;2022-08-18T13:08:20;25.60;99.90
23495;DHT22;26107;50.832;2.950;2022-08-18T13:23:21;25.30;99.90
23495;DHT22;26107;50.832;2.950;2022-08-18T13:38:21;25.20;99.90
23495;DHT22;26107;50.832;2.950;2022-08-18T13:53:23;26.30;99.90
23495;DHT22;26107;50.832;2.950;2022-08-18T14:08:24;25.50;99.90
23495;DHT22;26107;50.832;2.950;2022-08-18T14:23:25;24.70;99.90
23495;DHT22;26107;50.832;2.950;2022-08-18T14:38:44;24.80;99.90
23495;DHT22;26107;50.832;2.950;2022-08-18T14:53:45;25.00;99.90
23495;DHT22;26107;50.832;2.950;2022-08-18T15:08:45;25.60;99.90
23495;DHT22;26107;50.832;2.950;2022-08-18T15:23:46;26.40;99.90
23495;DHT22;26107;50.832;2.950;2022-08-18T15:39:05;26.50;99.90
23495;DHT22;26107;50.832;2.950;2022-08-18T15:54:06;26.90;99.90
23495;DHT22;26107;50.832;2.950;2022-08-18T16:09:07;27.50;99.90
23495;DHT22;26107;50.832;2.950;2022-08-18T16:24:08;27.50;99.90
23495;DHT22;26107;50.832;2.950;2022-08-18T16:39:08;27.70;99.90
23495;DHT22;26107;50.832;2.950;2022-08-18T16:54:09;28.80;99.90
23495;DHT22;26107;50.832;2.950;2022-08-18T17:09:09;32.30;94.80
23495;DHT22;26107;50.832;2.950;2022-08-18T17:24:10;31.80;93.90
23495;DHT22;26107;50.832;2.950;2022-08-18T17:39:11;30.20;95.70
23495;DHT22;26107;50.832;2.950;2022-08-18T18:09:32;27.50;98.40
23495;DHT22;26107;50.832;2.950;2022-08-18T18:24:34;26.10;99.90
23495;DHT22;26107;50.832;2.950;2022-08-18T18:39:35;25.30;99.90
23495;DHT22;26107;50.832;2.950;2022-08-18T19:10:13;24.80;99.90
23495;DHT22;26107;50.832;2.950;2022-08-18T19:25:15;24.40;99.90
23495;DHT22;26107;50.832;2.950;2022-08-18T20:25:42;22.60;99.90
23495;DHT22;26107;50.832;2.950;2022-08-18T20:40:45;22.50;99.90
23495;DHT22;26107;50.832;2.950;2022-08-18T20:55:59;22.40;99.90
23495;DHT22;26107;50.832;2.950;2022-08-18T21:11:07;21.80;99.90
23495;DHT22;26107;50.832;2.950;2022-08-18T21:26:11;21.30;99.90
23495;DHT22;26107;50.832;2.950;2022-08-18T21:41:12;20.50;99.90
23495;DHT22;26107;50.832;2.950;2022-08-18T22:11:32;19.80;99.90
23495;DHT22;26107;50.832;2.950;2022-08-18T22:42:03;19.40;99.90
23495;DHT22;26107;50.832;2.950;2022-08-18T22:57:06;18.90;99.90
23495;DHT22;26107;50.832;2.950;2022-08-18T23:12:07;18.80;99.90
23495;DHT22;26107;50.832;2.950;2022-08-18T23:27:09;18.50;99.90
23495;DHT22;26107;50.832;2.950;2022-08-18T23:42:10;18.50;99.90
23495;DHT22;26107;50.832;2.950;2022-08-18T23:57:12;18.80;99.90
